Ternholm — OWIM2 — position and weather

sailwx.info

Track history (hours):
 
Tides and Currents Weather Stations Pressure Air Temp Water Temp Dewpoint Dewpoint Depression Visibility Wind Speed Wind Dir Waves Ship Positions

Ternholm

Last reported at 2015-Mar-05 09:33 UTC. Time now 2015-Mar-05 11:57 UTC.
Position N 59°33' E 023°24'.

Length 141 m; draft 8.5 m.

Type: Ship (hazmat cat B). MMSI: 219076000.

Date/timePositionNaut miles runAvg speedWind from/ knotsBaromVisibWave heightAir tempDewpointWater temp
2015-Mar-05 09:33N 59°33' E 023°24'34611.4
2015-Mar-04 03:06N 55°39' E 015°28'712.5
2015-Mar-04 02:33N 55°36' E 015°17'1312.6
2015-Mar-04 01:33N 55°30' E 014°58'1312.5
2015-Mar-04 00:33N 55°23' E 014°39'1312.5
2015-Mar-03 23:33N 55°13' E 014°25'1212.5
2015-Mar-03 22:33N 55°04' E 014°11'1212.3
2015-Mar-03 21:33N 54°58' E 013°51'1312.5
2015-Mar-03 20:33N 54°54' E 013°31'1412.5
2015-Mar-03 19:24N 54°49' E 013°07'1112.5
2015-Mar-03 18:32N 54°46' E 012°49'1212.4
2015-Mar-03 17:33N 54°40' E 012°31'1212.0
2015-Mar-03 16:33N 54°32' E 012°16'1111.1
2015-Mar-03 15:33N 54°25' E 012°02'1212.2
2015-Mar-03 14:33N 54°26' E 011°41'1312.6
2015-Mar-03 13:33N 54°32' E 011°22'1312.6
2015-Mar-03 12:33N 54°38' E 011°03'11610.6
2015-Mar-03 01:33N 56°32' E 011°39'1111.0
2015-Mar-03 00:33N 56°42' E 011°48'1010.4
2015-Mar-02 23:33N 56°52' E 011°48'1211.6
2015-Mar-02 22:33N 57°03' E 011°40'1211.6
2015-Mar-02 21:33N 57°14' E 011°33'1111.3
2015-Mar-02 20:33N 57°25' E 011°34'1211.6
2015-Mar-02 19:33N 57°37' E 011°39'8 8.1
2015-Mar-02 18:31N 57°41' E 011°52'0 0.0
2015-Mar-02 17:34N 57°41' E 011°52'0 0.0
2015-Mar-02 16:34N 57°41' E 011°52'0 0.0
2015-Mar-02 15:33N 57°41' E 011°52'0 0.0
2015-Mar-02 14:33N 57°41' E 011°52'0 0.0
2015-Mar-02 13:33N 57°41' E 011°52'0 0.0
2015-Mar-02 12:33N 57°41' E 011°52'0 0.2
2015-Mar-02 11:33N 57°41' E 011°53'0 0.0
2015-Mar-02 10:33N 57°41' E 011°53'0 0.0
2015-Mar-02 09:33N 57°41' E 011°53'0 0.0
2015-Mar-02 08:33N 57°41' E 011°53'0 0.0
2015-Mar-02 07:33N 57°41' E 011°53'0 0.0
2015-Mar-02 06:33N 57°41' E 011°53'0 0.0
2015-Mar-02 05:33N 57°41' E 011°53'0 0.0
2015-Mar-02 04:33N 57°41' E 011°53'0 0.0
2015-Mar-02 03:33N 57°41' E 011°53'0 0.0
2015-Mar-02 02:33N 57°41' E 011°53'0 0.0
2015-Mar-02 01:30N 57°41' E 011°53'0 0.0
2015-Mar-02 00:33N 57°41' E 011°53'0 0.0
2015-Mar-01 23:33N 57°41' E 011°53'0 0.0
2015-Mar-01 22:33N 57°41' E 011°53'0 0.0
2015-Mar-01 21:33N 57°41' E 011°53'0 0.0
2015-Mar-01 20:33N 57°41' E 011°53'0 0.0
2015-Mar-01 19:33N 57°41' E 011°53'0 0.0
2015-Mar-01 18:33N 57°41' E 011°53'0 0.0
2015-Mar-01 17:33N 57°41' E 011°53'0 0.0
2015-Mar-01 16:33N 57°41' E 011°53'0 0.0
2015-Mar-01 15:33N 57°41' E 011°53'0 0.0
2015-Mar-01 14:33N 57°41' E 011°53'0 0.0
2015-Mar-01 13:33N 57°41' E 011°53'0 0.0
2015-Mar-01 12:33N 57°41' E 011°53'0 0.0
2015-Mar-01 11:33N 57°41' E 011°53'0 0.0
2015-Mar-01 10:33N 57°41' E 011°53'0 0.0
2015-Mar-01 09:33N 57°41' E 011°53'0 0.0
2015-Mar-01 08:33N 57°41' E 011°53'0 0.0
2015-Mar-01 07:33N 57°41' E 011°53'0 0.0
2015-Mar-01 06:32N 57°41' E 011°53'0 0.0
2015-Mar-01 05:32N 57°41' E 011°53'0 0.4
2015-Mar-01 04:34N 57°41' E 011°52'8 8.1
2015-Mar-01 03:33N 57°37' E 011°39'1010.2
2015-Mar-01 02:34N 57°44' E 011°25'1111.2
2015-Mar-01 01:34N 57°54' E 011°17'10 9.7
2015-Mar-01 00:34N 58°03' E 011°15'8 7.8
2015-Feb-28 23:34N 58°11' E 011°14'9 8.6
2015-Feb-28 22:34N 58°19' E 011°21'3 3.4
2015-Feb-28 21:33N 58°21' E 011°26'0 0.0
2015-Feb-28 20:33N 58°21' E 011°26'0 0.0
2015-Feb-28 19:33N 58°21' E 011°26'0 0.0
2015-Feb-28 18:33N 58°21' E 011°26'0 0.0
2015-Feb-28 17:33N 58°21' E 011°26'0 0.0
2015-Feb-28 16:33N 58°21' E 011°26'0 0.0
2015-Feb-28 15:30N 58°21' E 011°26'0 0.0
2015-Feb-28 14:33N 58°21' E 011°26'0 0.0
2015-Feb-28 13:33N 58°21' E 011°26'0 0.0
2015-Feb-28 12:32N 58°21' E 011°26'0 0.0
2015-Feb-28 11:32N 58°21' E 011°26'0 0.0
2015-Feb-28 10:32N 58°21' E 011°26'0 0.0
2015-Feb-28 09:32N 58°21' E 011°26'0 0.0
2015-Feb-28 08:26N 58°21' E 011°26'0 0.0
2015-Feb-28 07:32N 58°21' E 011°26'0 0.0
2015-Feb-28 06:32N 58°21' E 011°26'0 0.0
2015-Feb-28 05:32N 58°21' E 011°26'0 0.0
2015-Feb-28 04:26N 58°21' E 011°26'0 0.0
2015-Feb-28 03:32N 58°21' E 011°26'0 0.0
2015-Feb-28 02:32N 58°21' E 011°26'0 0.0
2015-Feb-28 00:23N 58°21' E 011°26'0 0.0
2015-Feb-27 20:17N 58°21' E 011°26'0 0.0
2015-Feb-27 19:23N 58°21' E 011°26'0 0.0
2015-Feb-27 18:23N 58°21' E 011°26'0 0.0
2015-Feb-27 17:23N 58°21' E 011°26'0 0.0
2015-Feb-27 13:17N 58°21' E 011°26'0 0.0
2015-Feb-27 12:32N 58°21' E 011°26'0 0.0
2015-Feb-27 11:32N 58°21' E 011°26'0 0.0
2015-Feb-27 10:32N 58°21' E 011°26'2 2.2
2015-Feb-27 09:33N 58°20' E 011°23'0 0.0
2015-Feb-27 08:31N 58°20' E 011°23'0 0.0
2015-Feb-27 07:31N 58°20' E 011°23'0 0.0
2015-Feb-27 06:31N 58°20' E 011°23'0 0.0
2015-Feb-27 05:31N 58°20' E 011°23'0 0.0
2015-Feb-27 04:31N 58°20' E 011°23'0 0.0
2015-Feb-27 03:31N 58°20' E 011°23'0 0.0
2015-Feb-27 02:31N 58°20' E 011°23'0 0.0
2015-Feb-27 01:31N 58°20' E 011°23'0 0.0
2015-Feb-27 00:31N 58°20' E 011°23'0 0.0
2015-Feb-26 23:31N 58°20' E 011°23'0 0.0
2015-Feb-26 22:28N 58°20' E 011°23'0 0.0
2015-Feb-26 21:34N 58°20' E 011°23'0 0.0
2015-Feb-26 20:34N 58°20' E 011°23'0 0.5
2015-Feb-26 19:33N 58°20' E 011°22'1111.4
2015-Feb-26 18:33N 58°09' E 011°14'1514.5
2015-Feb-26 17:33N 57°55' E 011°21'1313.4
2015-Feb-26 16:33N 57°42' E 011°29'1413.6
2015-Feb-26 15:33N 57°30' E 011°38'1313.0
2015-Feb-26 14:33N 57°18' E 011°50'1312.5
2015-Feb-26 13:33N 57°07' E 011°59'1211.8
2015-Feb-26 12:33N 56°55' E 012°06'1212.3
2015-Feb-26 11:33N 56°44' E 012°10'1212.3
2015-Feb-26 10:33N 56°31' E 012°14'1312.6
2015-Feb-26 09:33N 56°19' E 012°18'1414.2
2015-Feb-26 08:34N 56°07' E 012°33'1413.7
2015-Feb-26 07:33N 55°55' E 012°44'1212.4
2015-Feb-26 06:33N 55°43' E 012°41'1312.8
2015-Feb-26 05:33N 55°30' E 012°43'1211.6
2015-Feb-26 04:33N 55°19' E 012°40'1111.2
2015-Feb-26 03:33N 55°16' E 012°59'1111.1
2015-Feb-26 02:33N 55°15' E 013°19'1111.4
2015-Feb-26 01:33N 55°14' E 013°39'3110.4
2015-Feb-25 22:32N 55°24' E 014°31'1111.3
2015-Feb-25 21:32N 55°31' E 014°46'1111.4
2015-Feb-25 20:33N 55°36' E 015°04'11010.5
2015-Feb-25 10:09N 56°57' E 017°18'811.3
2015-Feb-25 09:28N 57°04' E 017°23'1311.3
2015-Feb-25 08:21N 57°15' E 017°32'1211.3
2015-Feb-25 07:17N 57°27' E 017°40'  
Track history (hours):
 
Tides and Currents Weather Stations Pressure Air Temp Water Temp Dewpoint Dewpoint Depression Visibility Wind Speed Wind Dir Waves Ship Positions

Ternholm

Last reported at 2015-Mar-05 09:33 UTC. Time now 2015-Mar-05 11:57 UTC.
Position N 59°33' E 023°24'.

Length 141 m; draft 8.5 m.

Type: Ship (hazmat cat B). MMSI: 219076000.

Date/timePositionNaut miles runAvg speedWind from/ knotsBaromVisibWave heightAir tempDewpointWater temp
2015-Mar-05 09:33N 59°33' E 023°24'34611.4
2015-Mar-04 03:06N 55°39' E 015°28'712.5
2015-Mar-04 02:33N 55°36' E 015°17'1312.6
2015-Mar-04 01:33N 55°30' E 014°58'1312.5
2015-Mar-04 00:33N 55°23' E 014°39'1312.5
2015-Mar-03 23:33N 55°13' E 014°25'1212.5
2015-Mar-03 22:33N 55°04' E 014°11'1212.3
2015-Mar-03 21:33N 54°58' E 013°51'1312.5
2015-Mar-03 20:33N 54°54' E 013°31'1412.5
2015-Mar-03 19:24N 54°49' E 013°07'1112.5
2015-Mar-03 18:32N 54°46' E 012°49'1212.4
2015-Mar-03 17:33N 54°40' E 012°31'1212.0
2015-Mar-03 16:33N 54°32' E 012°16'1111.1
2015-Mar-03 15:33N 54°25' E 012°02'1212.2
2015-Mar-03 14:33N 54°26' E 011°41'1312.6
2015-Mar-03 13:33N 54°32' E 011°22'1312.6
2015-Mar-03 12:33N 54°38' E 011°03'11610.6
2015-Mar-03 01:33N 56°32' E 011°39'1111.0
2015-Mar-03 00:33N 56°42' E 011°48'1010.4
2015-Mar-02 23:33N 56°52' E 011°48'1211.6
2015-Mar-02 22:33N 57°03' E 011°40'1211.6
2015-Mar-02 21:33N 57°14' E 011°33'1111.3
2015-Mar-02 20:33N 57°25' E 011°34'1211.6
2015-Mar-02 19:33N 57°37' E 011°39'8 8.1
2015-Mar-02 18:31N 57°41' E 011°52'0 0.0
2015-Mar-02 17:34N 57°41' E 011°52'0 0.0
2015-Mar-02 16:34N 57°41' E 011°52'0 0.0
2015-Mar-02 15:33N 57°41' E 011°52'0 0.0
2015-Mar-02 14:33N 57°41' E 011°52'0 0.0
2015-Mar-02 13:33N 57°41' E 011°52'0 0.0
2015-Mar-02 12:33N 57°41' E 011°52'0 0.2
2015-Mar-02 11:33N 57°41' E 011°53'0 0.0
2015-Mar-02 10:33N 57°41' E 011°53'0 0.0
2015-Mar-02 09:33N 57°41' E 011°53'0 0.0
2015-Mar-02 08:33N 57°41' E 011°53'0 0.0
2015-Mar-02 07:33N 57°41' E 011°53'0 0.0
2015-Mar-02 06:33N 57°41' E 011°53'0 0.0
2015-Mar-02 05:33N 57°41' E 011°53'0 0.0
2015-Mar-02 04:33N 57°41' E 011°53'0 0.0
2015-Mar-02 03:33N 57°41' E 011°53'0 0.0
2015-Mar-02 02:33N 57°41' E 011°53'0 0.0
2015-Mar-02 01:30N 57°41' E 011°53'0 0.0
2015-Mar-02 00:33N 57°41' E 011°53'0 0.0
2015-Mar-01 23:33N 57°41' E 011°53'0 0.0
2015-Mar-01 22:33N 57°41' E 011°53'0 0.0
2015-Mar-01 21:33N 57°41' E 011°53'0 0.0
2015-Mar-01 20:33N 57°41' E 011°53'0 0.0
2015-Mar-01 19:33N 57°41' E 011°53'0 0.0
2015-Mar-01 18:33N 57°41' E 011°53'0 0.0
2015-Mar-01 17:33N 57°41' E 011°53'0 0.0
2015-Mar-01 16:33N 57°41' E 011°53'0 0.0
2015-Mar-01 15:33N 57°41' E 011°53'0 0.0
2015-Mar-01 14:33N 57°41' E 011°53'0 0.0
2015-Mar-01 13:33N 57°41' E 011°53'0 0.0
2015-Mar-01 12:33N 57°41' E 011°53'0 0.0
2015-Mar-01 11:33N 57°41' E 011°53'0 0.0
2015-Mar-01 10:33N 57°41' E 011°53'0 0.0
2015-Mar-01 09:33N 57°41' E 011°53'0 0.0
2015-Mar-01 08:33N 57°41' E 011°53'0 0.0
2015-Mar-01 07:33N 57°41' E 011°53'0 0.0
2015-Mar-01 06:32N 57°41' E 011°53'0 0.0
2015-Mar-01 05:32N 57°41' E 011°53'0 0.4
2015-Mar-01 04:34N 57°41' E 011°52'8 8.1
2015-Mar-01 03:33N 57°37' E 011°39'1010.2
2015-Mar-01 02:34N 57°44' E 011°25'1111.2
2015-Mar-01 01:34N 57°54' E 011°17'10 9.7
2015-Mar-01 00:34N 58°03' E 011°15'8 7.8
2015-Feb-28 23:34N 58°11' E 011°14'9 8.6
2015-Feb-28 22:34N 58°19' E 011°21'3 3.4
2015-Feb-28 21:33N 58°21' E 011°26'0 0.0
2015-Feb-28 20:33N 58°21' E 011°26'0 0.0
2015-Feb-28 19:33N 58°21' E 011°26'0 0.0
2015-Feb-28 18:33N 58°21' E 011°26'0 0.0
2015-Feb-28 17:33N 58°21' E 011°26'0 0.0
2015-Feb-28 16:33N 58°21' E 011°26'0 0.0
2015-Feb-28 15:30N 58°21' E 011°26'0 0.0
2015-Feb-28 14:33N 58°21' E 011°26'0 0.0
2015-Feb-28 13:33N 58°21' E 011°26'0 0.0
2015-Feb-28 12:32N 58°21' E 011°26'0 0.0
2015-Feb-28 11:32N 58°21' E 011°26'0 0.0
2015-Feb-28 10:32N 58°21' E 011°26'0 0.0
2015-Feb-28 09:32N 58°21' E 011°26'0 0.0
2015-Feb-28 08:26N 58°21' E 011°26'0 0.0
2015-Feb-28 07:32N 58°21' E 011°26'0 0.0
2015-Feb-28 06:32N 58°21' E 011°26'0 0.0
2015-Feb-28 05:32N 58°21' E 011°26'0 0.0
2015-Feb-28 04:26N 58°21' E 011°26'0 0.0
2015-Feb-28 03:32N 58°21' E 011°26'0 0.0
2015-Feb-28 02:32N 58°21' E 011°26'0 0.0
2015-Feb-28 00:23N 58°21' E 011°26'0 0.0
2015-Feb-27 20:17N 58°21' E 011°26'0 0.0
2015-Feb-27 19:23N 58°21' E 011°26'0 0.0
2015-Feb-27 18:23N 58°21' E 011°26'0 0.0
2015-Feb-27 17:23N 58°21' E 011°26'0 0.0
2015-Feb-27 13:17N 58°21' E 011°26'0 0.0
2015-Feb-27 12:32N 58°21' E 011°26'0 0.0
2015-Feb-27 11:32N 58°21' E 011°26'0 0.0
2015-Feb-27 10:32N 58°21' E 011°26'2 2.2
2015-Feb-27 09:33N 58°20' E 011°23'0 0.0
2015-Feb-27 08:31N 58°20' E 011°23'0 0.0
2015-Feb-27 07:31N 58°20' E 011°23'0 0.0
2015-Feb-27 06:31N 58°20' E 011°23'0 0.0
2015-Feb-27 05:31N 58°20' E 011°23'0 0.0
2015-Feb-27 04:31N 58°20' E 011°23'0 0.0
2015-Feb-27 03:31N 58°20' E 011°23'0 0.0
2015-Feb-27 02:31N 58°20' E 011°23'0 0.0
2015-Feb-27 01:31N 58°20' E 011°23'0 0.0
2015-Feb-27 00:31N 58°20' E 011°23'0 0.0
2015-Feb-26 23:31N 58°20' E 011°23'0 0.0
2015-Feb-26 22:28N 58°20' E 011°23'0 0.0
2015-Feb-26 21:34N 58°20' E 011°23'0 0.0
2015-Feb-26 20:34N 58°20' E 011°23'0 0.5
2015-Feb-26 19:33N 58°20' E 011°22'1111.4
2015-Feb-26 18:33N 58°09' E 011°14'1514.5
2015-Feb-26 17:33N 57°55' E 011°21'1313.4
2015-Feb-26 16:33N 57°42' E 011°29'1413.6
2015-Feb-26 15:33N 57°30' E 011°38'1313.0
2015-Feb-26 14:33N 57°18' E 011°50'1312.5
2015-Feb-26 13:33N 57°07' E 011°59'1211.8
2015-Feb-26 12:33N 56°55' E 012°06'1212.3
2015-Feb-26 11:33N 56°44' E 012°10'1212.3
2015-Feb-26 10:33N 56°31' E 012°14'1312.6
2015-Feb-26 09:33N 56°19' E 012°18'1414.2
2015-Feb-26 08:34N 56°07' E 012°33'1413.7
2015-Feb-26 07:33N 55°55' E 012°44'1212.4
2015-Feb-26 06:33N 55°43' E 012°41'1312.8
2015-Feb-26 05:33N 55°30' E 012°43'1211.6
2015-Feb-26 04:33N 55°19' E 012°40'1111.2
2015-Feb-26 03:33N 55°16' E 012°59'1111.1
2015-Feb-26 02:33N 55°15' E 013°19'1111.4
2015-Feb-26 01:33N 55°14' E 013°39'3110.4
2015-Feb-25 22:32N 55°24' E 014°31'1111.3
2015-Feb-25 21:32N 55°31' E 014°46'1111.4
2015-Feb-25 20:33N 55°36' E 015°04'11010.5
2015-Feb-25 10:09N 56°57' E 017°18'811.3
2015-Feb-25 09:28N 57°04' E 017°23'1311.3
2015-Feb-25 08:21N 57°15' E 017°32'1211.3
2015-Feb-25 07:17N 57°27' E 017°40'  

Dump ship's entire track history